createdAt,value
2022-08-09T00:00:04.222Z,2.08
2022-08-09T00:02:34.066Z,2.63
2022-08-09T00:06:15.510Z,2.03
2022-08-09T00:07:47.685Z,2.30
2022-08-09T00:10:17.930Z,2.17
2022-08-09T00:12:47.518Z,2.53
2022-08-09T00:15:26.629Z,2.20
2022-08-09T00:18:11.196Z,1.98
2022-08-09T00:20:42.260Z,2.50
2022-08-09T00:23:56.394Z,2.57
2022-08-09T00:26:05.207Z,3.03
2022-08-09T00:28:32.166Z,2.40
2022-08-09T00:31:01.136Z,2.38
2022-08-09T00:33:50.828Z,2.65
2022-08-09T00:36:18.256Z,2.73
2022-08-09T00:38:45.181Z,3.00
2022-08-09T00:41:13.343Z,3.03
2022-08-09T00:44:13.805Z,2.50
2022-08-09T00:46:57.871Z,2.60
2022-08-09T00:49:31.232Z,2.77
2022-08-09T00:51:58.677Z,3.22
2022-08-09T00:54:36.245Z,2.80
2022-08-09T00:57:10.680Z,2.97
2022-08-09T00:59:46.460Z,2.97
2022-08-09T01:02:21.958Z,2.90
2022-08-09T01:05:00.774Z,3.10
2022-08-09T01:08:00.848Z,3.13
2022-08-09T01:10:38.802Z,3.22
2022-08-09T01:13:53.453Z,3.33
2022-08-09T01:16:24.917Z,3.00
2022-08-09T01:19:02.081Z,2.90
2022-08-09T01:21:50.921Z,3.10
2022-08-09T01:24:32.493Z,2.70
2022-08-09T01:27:07.736Z,3.17
2022-08-09T01:29:55.565Z,3.50
2022-08-09T01:32:43.952Z,2.97
2022-08-09T01:35:38.413Z,3.05
2022-08-09T01:38:15.082Z,3.70
2022-08-09T01:41:05.098Z,3.47
2022-08-09T01:43:51.309Z,3.53
2022-08-09T01:46:28.422Z,3.80
2022-08-09T01:49:09.721Z,3.03
2022-08-09T01:51:42.889Z,3.35
2022-08-09T01:54:13.540Z,3.33
2022-08-09T01:56:44.016Z,3.63
2022-08-09T01:59:19.681Z,3.58
2022-08-09T02:01:59.556Z,3.05
2022-08-09T02:04:29.646Z,3.25
2022-08-09T02:08:34.840Z,3.58
2022-08-09T02:10:10.863Z,4.03
2022-08-09T02:12:39.258Z,3.53
2022-08-09T02:15:08.105Z,3.67
2022-08-09T02:18:00.652Z,3.38
2022-08-09T02:20:32.942Z,3.08
2022-08-09T02:23:14.587Z,4.07
2022-08-09T02:25:49.582Z,3.65
2022-08-09T02:28:25.535Z,3.30
2022-08-09T02:30:58.315Z,4.20
2022-08-09T02:33:37.934Z,4.45
2022-08-09T02:36:19.148Z,3.97
2022-08-09T02:38:49.630Z,3.60
2022-08-09T02:41:23.145Z,3.90
2022-08-09T02:43:54.605Z,3.83
2022-08-09T02:46:27.710Z,3.22
2022-08-09T02:48:59.108Z,3.93
2022-08-09T02:51:28.386Z,3.78
2022-08-09T02:54:04.780Z,3.80
2022-08-09T02:56:33.831Z,3.70
2022-08-09T02:59:03.515Z,3.55
2022-08-09T03:01:58.733Z,4.00
2022-08-09T03:04:20.449Z,4.00
2022-08-09T03:06:54.051Z,3.75
2022-08-09T03:09:21.609Z,4.10
2022-08-09T03:12:06.473Z,4.25
2022-08-09T03:14:36.733Z,3.67
2022-08-09T03:17:05.621Z,3.72
2022-08-09T03:19:58.276Z,3.45
2022-08-09T03:22:25.625Z,3.50
2022-08-09T03:25:21.422Z,4.15
2022-08-09T03:27:49.009Z,3.30
2022-08-09T03:30:29.158Z,3.90
2022-08-09T03:33:17.529Z,3.63
2022-08-09T03:36:13.202Z,4.10
2022-08-09T03:38:41.886Z,3.88
2022-08-09T03:41:09.747Z,3.57
2022-08-09T03:43:41.308Z,3.83
2022-08-09T03:46:19.543Z,3.97
2022-08-09T03:48:54.989Z,4.00
2022-08-09T03:51:55.620Z,3.50
2022-08-09T03:54:11.618Z,3.57
2022-08-09T03:56:42.269Z,3.88
2022-08-09T03:59:16.999Z,4.25
2022-08-09T04:01:50.175Z,4.30
2022-08-09T04:04:17.345Z,3.85
2022-08-09T04:06:49.275Z,4.20
2022-08-09T04:09:41.750Z,3.90
2022-08-09T04:12:30.758Z,4.20
2022-08-09T04:15:01.336Z,4.13
2022-08-09T04:17:29.689Z,4.57
2022-08-09T04:19:56.544Z,4.33
2022-08-09T04:22:23.534Z,4.05
2022-08-09T04:24:50.279Z,3.53
2022-08-09T04:27:17.264Z,3.85
2022-08-09T04:29:49.381Z,3.33
2022-08-09T04:32:16.681Z,4.27
2022-08-09T04:34:54.278Z,4.53
2022-08-09T04:37:23.870Z,4.00
2022-08-09T04:40:11.449Z,4.05
2022-08-09T04:42:45.881Z,3.80
2022-08-09T04:45:16.380Z,3.43
2022-08-09T04:47:59.424Z,3.95
2022-08-09T04:50:33.567Z,3.97
2022-08-09T04:53:02.013Z,4.28
2022-08-09T04:55:37.880Z,4.13
2022-08-09T04:58:09.292Z,4.00
2022-08-09T05:00:36.913Z,4.35
2022-08-09T05:03:30.691Z,4.10
2022-08-09T05:06:06.489Z,4.00
2022-08-09T05:08:34.897Z,4.00
2022-08-09T05:11:02.410Z,4.23
2022-08-09T05:13:29.178Z,4.13
2022-08-09T05:15:59.824Z,4.57
2022-08-09T05:18:37.772Z,4.50
2022-08-09T05:21:20.752Z,3.78
2022-08-09T05:23:58.227Z,4.83
2022-08-09T05:26:45.710Z,4.18
2022-08-09T05:29:22.222Z,4.15
2022-08-09T05:31:57.462Z,4.82
2022-08-09T05:34:30.083Z,4.25
2022-08-09T05:37:06.182Z,4.37
2022-08-09T05:39:42.463Z,4.15
2022-08-09T05:42:17.483Z,4.15
2022-08-09T05:44:50.747Z,4.60
2022-08-09T05:47:19.249Z,4.03
2022-08-09T05:50:30.292Z,4.57
2022-08-09T05:52:34.439Z,4.28
2022-08-09T05:55:03.149Z,5.10
2022-08-09T05:57:55.302Z,4.07
2022-08-09T06:00:28.984Z,4.28
2022-08-09T06:02:57.620Z,5.00
2022-08-09T06:05:50.336Z,4.30
2022-08-09T06:08:12.888Z,4.30
2022-08-09T06:10:39.381Z,4.18
2022-08-09T06:13:12.120Z,3.63
2022-08-09T06:15:44.600Z,4.33
2022-08-09T06:18:13.475Z,4.15
2022-08-09T06:20:42.490Z,4.05
2022-08-09T06:23:12.034Z,4.15
2022-08-09T06:25:42.037Z,4.05
2022-08-09T06:28:10.068Z,4.03
2022-08-09T06:30:36.599Z,4.90
2022-08-09T06:33:13.756Z,4.30
2022-08-09T06:35:57.726Z,4.43
2022-08-09T06:38:31.994Z,4.00
2022-08-09T06:41:04.452Z,4.10
2022-08-09T06:43:34.329Z,3.80
2022-08-09T06:46:05.163Z,3.90
2022-08-09T06:48:36.984Z,3.83
2022-08-09T06:51:10.324Z,4.03
2022-08-09T06:53:38.374Z,3.67
2022-08-09T06:56:06.568Z,3.72
2022-08-09T07:00:49.913Z,3.45
2022-08-09T07:01:21.514Z,3.30
2022-08-09T07:03:53.141Z,3.58
2022-08-09T07:06:20.742Z,3.40
2022-08-09T07:08:49.686Z,3.47
2022-08-09T07:11:17.694Z,3.03
2022-08-09T07:14:04.750Z,2.95
2022-08-09T07:16:41.316Z,3.38
2022-08-09T07:19:15.789Z,3.23
2022-08-09T07:21:55.179Z,3.28
2022-08-09T07:24:32.197Z,3.13
2022-08-09T07:27:10.902Z,2.55
2022-08-09T07:29:56.900Z,2.60
2022-08-09T07:32:33.236Z,2.63
2022-08-09T07:35:08.180Z,2.72
2022-08-09T07:37:45.644Z,2.40
2022-08-09T07:40:17.564Z,2.42
2022-08-09T07:42:50.111Z,2.55
2022-08-09T07:45:23.113Z,2.57
2022-08-09T07:48:04.733Z,2.75
2022-08-09T07:50:34.610Z,2.97
2022-08-09T07:53:04.756Z,2.22
2022-08-09T07:55:41.407Z,2.10
2022-08-09T07:58:18.432Z,2.23
2022-08-09T08:00:55.582Z,1.80
2022-08-09T08:03:24.276Z,2.28
2022-08-09T08:05:58.050Z,1.90
2022-08-09T08:09:02.258Z,2.00
2022-08-09T08:12:08.696Z,1.50
2022-08-09T08:13:58.357Z,1.90
2022-08-09T08:16:29.489Z,1.30
2022-08-09T08:18:58.742Z,1.33
2022-08-09T08:21:25.225Z,1.17
2022-08-09T08:23:55.954Z,1.10
2022-08-09T08:26:26.507Z,1.20
2022-08-09T08:28:53.256Z,1.25
2022-08-09T08:31:19.697Z,0.90
2022-08-09T08:33:54.036Z,1.10
2022-08-09T08:36:29.018Z,0.90
2022-08-09T08:38:58.239Z,1.08
2022-08-09T08:41:41.756Z,1.00
2022-08-09T08:44:13.837Z,0.82
2022-08-09T08:46:41.404Z,0.95
2022-08-09T08:49:38.845Z,1.27
2022-08-09T08:52:29.613Z,1.10
2022-08-09T08:55:03.895Z,0.80
2022-08-09T08:57:35.265Z,1.05
2022-08-09T09:00:02.449Z,0.85
2022-08-09T09:02:35.736Z,0.90
2022-08-09T09:05:06.007Z,0.93
2022-08-09T09:07:37.089Z,1.10
2022-08-09T09:10:10.066Z,0.70
2022-08-09T09:12:37.074Z,0.80
2022-08-09T09:15:06.275Z,0.80
2022-08-09T09:17:49.195Z,0.60
2022-08-09T09:20:19.040Z,0.70
2022-08-09T09:23:01.637Z,0.80
2022-08-09T09:26:04.439Z,0.80
2022-08-09T09:28:21.351Z,0.80
2022-08-09T09:32:04.329Z,0.82
2022-08-09T09:34:17.961Z,0.70
2022-08-09T09:36:52.725Z,0.90
2022-08-09T09:39:50.362Z,0.90
2022-08-09T09:42:24.477Z,0.90
2022-08-09T09:44:59.873Z,0.90
2022-08-09T09:47:28.539Z,0.90
2022-08-09T09:50:15.447Z,0.95
2022-08-09T09:52:56.362Z,0.82
2022-08-09T09:55:32.040Z,0.70
2022-08-09T09:58:16.570Z,1.00
2022-08-09T10:00:55.305Z,0.82
2022-08-09T10:03:57.063Z,0.80
2022-08-09T10:06:47.179Z,1.00
2022-08-09T10:09:22.477Z,0.90
2022-08-09T10:12:12.435Z,0.80
2022-08-09T10:14:48.440Z,0.80
2022-08-09T10:17:40.721Z,0.70
2022-08-09T10:20:32.358Z,0.70
2022-08-09T10:23:14.071Z,0.90
2022-08-09T10:26:06.486Z,0.80
2022-08-09T10:28:33.755Z,0.60
2022-08-09T10:34:09.042Z,0.65
2022-08-09T10:36:33.988Z,0.63
2022-08-09T10:39:02.136Z,0.60
2022-08-09T10:41:28.594Z,0.77
2022-08-09T10:43:59.456Z,0.90
2022-08-09T10:46:57.732Z,0.70
2022-08-09T10:49:51.378Z,0.90
2022-08-09T10:52:37.565Z,0.70
2022-08-09T10:55:26.948Z,0.60
2022-08-09T10:58:00.280Z,0.70
2022-08-09T11:00:36.259Z,0.70
2022-08-09T11:03:27.658Z,0.70
2022-08-09T11:06:19.613Z,0.80
2022-08-09T11:08:51.135Z,0.70
2022-08-09T11:11:21.770Z,0.75
2022-08-09T11:14:44.881Z,0.80
2022-08-09T11:17:13.733Z,0.77
2022-08-09T11:20:11.673Z,1.00
2022-08-09T11:22:45.026Z,0.60
2022-08-09T11:25:25.991Z,0.68
2022-08-09T11:28:08.017Z,0.88
2022-08-09T11:30:47.934Z,0.70
2022-08-09T11:33:17.580Z,0.60
2022-08-09T11:35:58.337Z,0.70
2022-08-09T11:38:32.176Z,0.70
2022-08-09T11:41:12.896Z,0.70
2022-08-09T11:43:48.456Z,0.70
2022-08-09T11:46:26.580Z,0.80
2022-08-09T11:49:00.455Z,0.70
2022-08-09T11:53:03.469Z,0.70
2022-08-09T11:54:27.653Z,0.80
2022-08-09T11:57:47.480Z,0.67
2022-08-09T12:00:27.366Z,1.00
2022-08-09T12:02:56.325Z,0.70
2022-08-09T12:05:39.599Z,0.70
2022-08-09T12:08:12.114Z,0.73
2022-08-09T12:10:44.484Z,0.80
2022-08-09T12:14:10.711Z,0.80
2022-08-09T12:16:37.845Z,0.70
2022-08-09T12:19:08.662Z,0.60
2022-08-09T12:21:50.514Z,0.70
2022-08-09T12:24:23.993Z,0.73
2022-08-09T12:29:00.251Z,0.90
2022-08-09T12:29:44.667Z,0.80
2022-08-09T12:32:26.625Z,0.80
2022-08-09T12:35:00.009Z,0.80
2022-08-09T12:37:49.822Z,0.70
2022-08-09T12:40:18.807Z,0.55
2022-08-09T12:42:46.000Z,0.70
2022-08-09T12:45:33.514Z,1.00
2022-08-09T12:47:59.522Z,0.80
2022-08-09T12:50:27.157Z,0.70
2022-08-09T12:53:17.539Z,0.90
2022-08-09T12:56:16.204Z,0.90
2022-08-09T12:58:28.681Z,0.80
2022-08-09T13:00:56.012Z,0.70
2022-08-09T13:03:53.222Z,0.90
2022-08-09T13:06:25.830Z,0.90
2022-08-09T13:09:21.964Z,0.80
2022-08-09T13:11:52.669Z,0.93
2022-08-09T13:14:41.102Z,0.80
2022-08-09T13:17:15.837Z,0.73
2022-08-09T13:20:06.844Z,0.80
2022-08-09T13:23:00.297Z,0.70
2022-08-09T13:25:20.102Z,0.80
2022-08-09T13:27:48.574Z,0.80
2022-08-09T13:30:50.372Z,0.70
2022-08-09T13:33:16.952Z,0.70
2022-08-09T13:36:38.548Z,0.80
2022-08-09T13:38:54.858Z,0.77
2022-08-09T13:41:58.642Z,0.80
2022-08-09T13:44:08.456Z,0.70
2022-08-09T13:47:17.958Z,0.90
2022-08-09T13:49:35.233Z,0.95
2022-08-09T13:52:09.052Z,0.88
2022-08-09T13:54:36.060Z,0.95
2022-08-09T13:57:08.404Z,0.70
2022-08-09T13:59:42.019Z,0.95
2022-08-09T14:02:08.755Z,0.90
2022-08-09T14:04:36.442Z,0.90
2022-08-09T14:07:03.847Z,0.90
2022-08-09T14:09:30.992Z,0.90
2022-08-09T14:12:06.803Z,1.00
2022-08-09T14:14:41.816Z,0.82
2022-08-09T14:17:12.601Z,0.90
2022-08-09T14:19:39.172Z,1.00
2022-08-09T14:22:07.209Z,1.10
2022-08-09T14:24:35.562Z,1.00
2022-08-09T14:27:02.310Z,0.90
2022-08-09T14:30:35.527Z,0.80
2022-08-09T14:32:16.312Z,0.73
2022-08-09T14:34:46.281Z,0.80
2022-08-09T14:37:22.461Z,0.80
2022-08-09T14:39:55.296Z,1.15
2022-08-09T14:42:29.044Z,0.80
2022-08-09T14:45:00.859Z,0.80
2022-08-09T14:47:44.950Z,0.63
2022-08-09T14:50:16.157Z,0.80
2022-08-09T14:52:42.861Z,1.10
2022-08-09T14:55:09.890Z,1.00
2022-08-09T14:57:43.487Z,0.95
2022-08-09T15:00:10.906Z,0.80
2022-08-09T15:02:38.218Z,0.90
2022-08-09T15:05:06.986Z,0.88
2022-08-09T15:07:35.532Z,0.80
2022-08-09T15:10:10.989Z,0.80
2022-08-09T15:12:40.385Z,0.80
2022-08-09T15:15:11.984Z,0.70
2022-08-09T15:17:41.498Z,0.75
2022-08-09T15:20:11.889Z,0.68
2022-08-09T15:22:46.681Z,0.60
2022-08-09T15:25:14.358Z,0.73
2022-08-09T15:27:48.122Z,0.60
2022-08-09T15:30:58.489Z,0.80
2022-08-09T15:33:15.135Z,0.70
2022-08-09T15:36:01.647Z,0.60
2022-08-09T15:38:28.895Z,0.83
2022-08-09T15:40:55.253Z,0.85
2022-08-09T15:43:24.748Z,0.70
2022-08-09T15:46:18.744Z,0.70
2022-08-09T15:48:42.773Z,0.60
2022-08-09T15:52:00.754Z,0.60
2022-08-09T15:54:31.464Z,0.70
2022-08-09T15:57:02.144Z,0.70
2022-08-09T15:59:37.133Z,0.70
2022-08-09T16:02:05.625Z,0.70
2022-08-09T16:04:33.950Z,0.70
2022-08-09T16:07:01.685Z,0.80
2022-08-09T16:09:32.504Z,0.80
2022-08-09T16:12:15.646Z,0.70
2022-08-09T16:14:42.417Z,0.65
2022-08-09T16:17:09.130Z,0.97
2022-08-09T16:19:36.756Z,0.70
2022-08-09T16:22:15.929Z,0.80
2022-08-09T16:24:42.451Z,0.70
2022-08-09T16:27:08.834Z,0.70
2022-08-09T16:29:50.458Z,1.07
2022-08-09T16:32:33.955Z,0.70
2022-08-09T16:35:00.944Z,0.70
2022-08-09T16:37:53.178Z,0.70
2022-08-09T16:40:29.463Z,0.70
2022-08-09T16:43:04.476Z,0.80
2022-08-09T16:45:33.323Z,0.90
2022-08-09T16:48:50.484Z,0.80
2022-08-09T16:50:59.445Z,0.82
2022-08-09T16:53:34.402Z,0.73
2022-08-09T16:56:06.023Z,0.90
2022-08-09T16:58:36.033Z,0.88
2022-08-09T17:01:04.078Z,0.75
2022-08-09T17:03:34.081Z,0.77
2022-08-09T17:06:08.093Z,0.80
2022-08-09T17:09:04.883Z,1.00
2022-08-09T17:11:41.889Z,1.00
2022-08-09T17:14:25.486Z,0.75
2022-08-09T17:17:00.015Z,1.20
2022-08-09T17:19:27.748Z,1.00
2022-08-09T17:22:14.652Z,0.90
2022-08-09T17:24:41.336Z,1.00
2022-08-09T17:27:15.055Z,1.08
2022-08-09T17:29:45.553Z,1.10
2022-08-09T17:32:15.840Z,1.08
2022-08-09T17:35:00.827Z,1.10
2022-08-09T17:37:29.600Z,1.15
2022-08-09T17:39:56.360Z,1.00
2022-08-09T17:42:41.104Z,1.00
2022-08-09T17:45:23.701Z,1.00
2022-08-09T17:47:54.860Z,1.07
2022-08-09T17:50:24.716Z,1.10
2022-08-09T17:53:04.784Z,1.10
2022-08-09T17:55:49.441Z,1.10
2022-08-09T17:58:18.811Z,1.00
2022-08-09T18:00:47.958Z,1.10
2022-08-09T18:03:17.569Z,1.00
2022-08-09T18:05:44.428Z,0.93
2022-08-09T18:08:11.109Z,0.90
2022-08-09T18:10:39.703Z,0.90
2022-08-09T18:13:39.067Z,0.77
2022-08-09T18:16:07.884Z,0.80
2022-08-09T18:18:36.207Z,1.13
2022-08-09T18:21:23.021Z,0.80
2022-08-09T18:24:11.191Z,0.70
2022-08-09T18:26:38.581Z,0.60
2022-08-09T18:30:35.326Z,0.60
2022-08-09T18:32:00.809Z,0.70
2022-08-09T18:34:31.447Z,0.70
2022-08-09T18:36:58.304Z,0.60
2022-08-09T18:39:25.618Z,1.00
2022-08-09T18:42:05.320Z,0.90
2022-08-09T18:44:35.129Z,0.70
2022-08-09T18:47:07.776Z,0.77
2022-08-09T18:49:43.491Z,0.80
2022-08-09T18:52:15.830Z,0.83
2022-08-09T18:54:49.593Z,0.75
2022-08-09T18:57:22.087Z,0.60
2022-08-09T18:59:54.329Z,0.60
2022-08-09T19:02:30.728Z,0.80
2022-08-09T19:05:14.518Z,0.60
2022-08-09T19:08:04.854Z,0.73
2022-08-09T19:10:37.777Z,0.73
2022-08-09T19:13:20.902Z,0.60
2022-08-09T19:15:53.116Z,0.60
2022-08-09T19:18:36.429Z,0.60
2022-08-09T19:21:09.200Z,0.52
2022-08-09T19:24:36.425Z,0.50
2022-08-09T19:26:31.164Z,0.70
2022-08-09T19:29:01.320Z,0.70
2022-08-09T19:31:30.566Z,0.40
2022-08-09T19:34:21.464Z,0.75
2022-08-09T19:36:50.378Z,0.52
2022-08-09T19:39:17.010Z,0.60
2022-08-09T19:41:46.776Z,0.70
2022-08-09T19:44:17.610Z,0.63
2022-08-09T19:46:50.595Z,0.70
2022-08-09T19:50:07.709Z,0.60
2022-08-09T19:52:07.928Z,0.57
2022-08-09T19:54:34.713Z,0.57
2022-08-09T19:57:02.607Z,0.70
2022-08-09T19:59:56.987Z,0.75
2022-08-09T20:04:08.156Z,0.82
2022-08-09T20:05:03.908Z,0.80
2022-08-09T20:07:59.091Z,0.70
2022-08-09T20:10:33.948Z,0.70
2022-08-09T20:13:02.195Z,1.00
2022-08-09T20:16:35.407Z,0.70
2022-08-09T20:18:17.921Z,0.77
2022-08-09T20:20:46.635Z,0.80
2022-08-09T20:23:13.227Z,0.90
2022-08-09T20:25:52.462Z,0.90
2022-08-09T20:28:24.505Z,0.80
2022-08-09T20:30:54.730Z,0.80
2022-08-09T20:33:21.692Z,0.80
2022-08-09T20:35:50.713Z,1.03
2022-08-09T20:38:29.005Z,1.00
2022-08-09T20:41:00.658Z,0.80
2022-08-09T20:43:27.440Z,0.95
2022-08-09T20:46:02.092Z,1.00
2022-08-09T20:48:42.049Z,0.80
2022-08-09T20:51:19.301Z,1.10
2022-08-09T20:53:46.335Z,0.70
2022-08-09T20:56:21.132Z,0.88
2022-08-09T20:58:54.706Z,1.00
2022-08-09T21:01:35.466Z,0.70
2022-08-09T21:05:53.877Z,0.70
2022-08-09T21:07:13.060Z,0.70
2022-08-09T21:09:56.631Z,0.75
2022-08-09T21:15:13.667Z,0.63
2022-08-09T21:18:21.162Z,0.65
2022-08-09T21:20:30.105Z,0.60
2022-08-09T21:22:57.259Z,0.80
2022-08-09T21:25:44.217Z,0.57
2022-08-09T21:28:33.196Z,0.73
2022-08-09T21:31:02.106Z,0.75
2022-08-09T21:33:45.228Z,0.43
2022-08-09T21:36:17.596Z,0.60
2022-08-09T21:38:45.287Z,0.60
2022-08-09T21:41:17.585Z,0.77
2022-08-09T21:43:57.149Z,0.60
2022-08-09T21:46:24.776Z,0.73
2022-08-09T21:48:52.005Z,0.75
2022-08-09T21:51:24.332Z,0.50
2022-08-09T21:54:02.567Z,0.53
2022-08-09T21:56:42.998Z,0.70
2022-08-09T21:59:11.297Z,0.40
2022-08-09T22:01:58.826Z,0.60
2022-08-09T22:04:44.782Z,0.60
2022-08-09T22:07:35.332Z,0.60
2022-08-09T22:10:00.845Z,0.50
2022-08-09T22:12:31.263Z,0.57
2022-08-09T22:14:58.018Z,0.50
2022-08-09T22:17:24.444Z,0.60
2022-08-09T22:19:59.183Z,0.60
2022-08-09T22:22:28.979Z,0.60
2022-08-09T22:26:06.844Z,0.65
2022-08-09T22:27:42.146Z,0.70
2022-08-09T22:30:09.602Z,0.50
2022-08-09T22:32:36.007Z,0.63
2022-08-09T22:36:01.624Z,0.70
2022-08-09T22:38:06.708Z,0.70
2022-08-09T22:40:34.567Z,0.50
2022-08-09T22:43:01.041Z,0.50
2022-08-09T22:48:13.809Z,0.70
2022-08-09T22:48:36.049Z,0.75
2022-08-09T22:51:10.434Z,0.85
2022-08-09T22:53:58.364Z,0.65
2022-08-09T22:56:33.518Z,0.60
2022-08-09T22:59:05.561Z,0.60
2022-08-09T23:01:51.159Z,0.70
2022-08-09T23:04:18.022Z,0.50
2022-08-09T23:07:03.316Z,0.70
2022-08-09T23:09:37.965Z,0.70
2022-08-09T23:12:04.641Z,0.70
2022-08-09T23:14:37.494Z,0.70
2022-08-09T23:17:09.393Z,0.70
2022-08-09T23:20:07.391Z,0.70
2022-08-09T23:22:22.186Z,0.50
2022-08-09T23:24:49.057Z,0.80
2022-08-09T23:27:15.797Z,0.88
2022-08-09T23:29:42.436Z,0.80
2022-08-09T23:32:08.841Z,0.70
2022-08-09T23:34:35.310Z,0.80
2022-08-09T23:37:01.719Z,0.87
2022-08-09T23:39:28.266Z,0.63
2022-08-09T23:41:54.743Z,0.65
2022-08-09T23:44:21.118Z,0.60
2022-08-09T23:46:48.729Z,0.93
2022-08-09T23:49:24.651Z,0.80
2022-08-09T23:51:51.456Z,0.90
2022-08-09T23:54:17.897Z,0.80
2022-08-09T23:56:54.377Z,0.60
2022-08-09T23:59:21.883Z,0.82
